sensor_id;sensor_type;location;lat;lon;timestamp;temperature;humidity
68098;DHT22;54886;47.036;15.466;2023-12-04T00:00:36;-3.92;77.68
68098;DHT22;54886;47.036;15.466;2023-12-04T00:03:02;-3.96;77.53
68098;DHT22;54886;47.036;15.466;2023-12-04T00:05:27;-4.03;77.31
68098;DHT22;54886;47.036;15.466;2023-12-04T00:07:53;-4.05;77.85
68098;DHT22;54886;47.036;15.466;2023-12-04T00:10:18;-4.05;77.59
68098;DHT22;54886;47.036;15.466;2023-12-04T00:12:43;-4.09;77.60
68098;DHT22;54886;47.036;15.466;2023-12-04T00:15:09;-4.15;77.83
68098;DHT22;54886;47.036;15.466;2023-12-04T00:17:35;-4.12;77.81
68098;DHT22;54886;47.036;15.466;2023-12-04T00:20:08;-4.09;78.08
68098;DHT22;54886;47.036;15.466;2023-12-04T00:22:34;-4.23;77.76
68098;DHT22;54886;47.036;15.466;2023-12-04T00:25:00;-4.20;78.01
68098;DHT22;54886;47.036;15.466;2023-12-04T00:27:25;-4.16;78.25
68098;DHT22;54886;47.036;15.466;2023-12-04T00:29:52;-4.20;77.76
68098;DHT22;54886;47.036;15.466;2023-12-04T00:32:18;-4.30;77.76
68098;DHT22;54886;47.036;15.466;2023-12-04T00:34:43;-4.32;77.99
68098;DHT22;54886;47.036;15.466;2023-12-04T00:37:08;-4.30;77.74
68098;DHT22;54886;47.036;15.466;2023-12-04T00:39:34;-4.36;77.84
68098;DHT22;54886;47.036;15.466;2023-12-04T00:41:59;-4.40;78.11
68098;DHT22;54886;47.036;15.466;2023-12-04T00:44:25;-4.34;78.28
68098;DHT22;54886;47.036;15.466;2023-12-04T00:46:50;-4.36;78.13
68098;DHT22;54886;47.036;15.466;2023-12-04T00:49:15;-4.34;78.37
68098;DHT22;54886;47.036;15.466;2023-12-04T00:51:41;-4.40;78.03
68098;DHT22;54886;47.036;15.466;2023-12-04T00:54:06;-4.40;78.10
68098;DHT22;54886;47.036;15.466;2023-12-04T00:56:31;-4.54;77.85
68098;DHT22;54886;47.036;15.466;2023-12-04T00:58:57;-4.57;78.00
68098;DHT22;54886;47.036;15.466;2023-12-04T01:01:22;-4.54;78.37
68098;DHT22;54886;47.036;15.466;2023-12-04T01:03:48;-4.64;78.14
68098;DHT22;54886;47.036;15.466;2023-12-04T01:06:23;-4.58;78.02
68098;DHT22;54886;47.036;15.466;2023-12-04T01:08:49;-4.58;77.88
68098;DHT22;54886;47.036;15.466;2023-12-04T01:11:15;-4.56;78.39
68098;DHT22;54886;47.036;15.466;2023-12-04T01:13:41;-4.57;77.92
68098;DHT22;54886;47.036;15.466;2023-12-04T01:16:07;-4.62;77.98
68098;DHT22;54886;47.036;15.466;2023-12-04T01:18:33;-4.67;77.89
68098;DHT22;54886;47.036;15.466;2023-12-04T01:20:58;-4.69;78.05
68098;DHT22;54886;47.036;15.466;2023-12-04T01:23:24;-4.65;78.53
68098;DHT22;54886;47.036;15.466;2023-12-04T01:25:50;-4.67;78.65
68098;DHT22;54886;47.036;15.466;2023-12-04T01:28:15;-4.67;78.09
68098;DHT22;54886;47.036;15.466;2023-12-04T01:30:40;-4.72;78.36
68098;DHT22;54886;47.036;15.466;2023-12-04T01:33:06;-4.72;78.52
68098;DHT22;54886;47.036;15.466;2023-12-04T01:35:33;-4.69;78.92
68098;DHT22;54886;47.036;15.466;2023-12-04T01:37:58;-4.77;78.52
68098;DHT22;54886;47.036;15.466;2023-12-04T01:40:24;-4.77;78.43
68098;DHT22;54886;47.036;15.466;2023-12-04T01:42:49;-4.72;78.79
68098;DHT22;54886;47.036;15.466;2023-12-04T01:45:15;-4.75;78.80
68098;DHT22;54886;47.036;15.466;2023-12-04T01:47:40;-4.72;78.21
68098;DHT22;54886;47.036;15.466;2023-12-04T01:50:07;-4.77;78.38
68098;DHT22;54886;47.036;15.466;2023-12-04T01:52:32;-4.81;78.47
68098;DHT22;54886;47.036;15.466;2023-12-04T01:54:58;-4.84;78.50
68098;DHT22;54886;47.036;15.466;2023-12-04T01:57:24;-4.87;78.36
68098;DHT22;54886;47.036;15.466;2023-12-04T01:59:49;-4.87;78.66
68098;DHT22;54886;47.036;15.466;2023-12-04T02:02:14;-4.85;78.83
68098;DHT22;54886;47.036;15.466;2023-12-04T02:04:40;-4.85;78.73
68098;DHT22;54886;47.036;15.466;2023-12-04T02:07:05;-4.88;78.35
68098;DHT22;54886;47.036;15.466;2023-12-04T02:09:30;-4.92;78.27
68098;DHT22;54886;47.036;15.466;2023-12-04T02:11:57;-4.88;78.60
68098;DHT22;54886;47.036;15.466;2023-12-04T02:14:22;-4.84;78.82
68098;DHT22;54886;47.036;15.466;2023-12-04T02:16:48;-4.85;78.64
68098;DHT22;54886;47.036;15.466;2023-12-04T02:19:14;-4.93;78.06
68098;DHT22;54886;47.036;15.466;2023-12-04T02:21:40;-5.02;78.14
68098;DHT22;54886;47.036;15.466;2023-12-04T02:24:05;-5.02;78.25
68098;DHT22;54886;47.036;15.466;2023-12-04T02:26:44;-4.96;78.59
68098;DHT22;54886;47.036;15.466;2023-12-04T02:29:15;-4.89;79.10
68098;DHT22;54886;47.036;15.466;2023-12-04T02:31:45;-4.87;79.01
68098;DHT22;54886;47.036;15.466;2023-12-04T02:34:12;-4.91;78.81
68098;DHT22;54886;47.036;15.466;2023-12-04T02:36:40;-4.96;78.55
68098;DHT22;54886;47.036;15.466;2023-12-04T02:39:06;-4.92;78.67
68098;DHT22;54886;47.036;15.466;2023-12-04T02:41:32;-5.03;78.21
68098;DHT22;54886;47.036;15.466;2023-12-04T02:43:57;-5.02;78.61
68098;DHT22;54886;47.036;15.466;2023-12-04T02:46:23;-5.06;78.40
68098;DHT22;54886;47.036;15.466;2023-12-04T02:48:48;-5.05;78.34
68098;DHT22;54886;47.036;15.466;2023-12-04T02:51:14;-5.05;78.25
68098;DHT22;54886;47.036;15.466;2023-12-04T02:53:39;-5.03;78.17
68098;DHT22;54886;47.036;15.466;2023-12-04T02:56:05;-5.09;78.09
68098;DHT22;54886;47.036;15.466;2023-12-04T02:58:31;-5.12;77.95
68098;DHT22;54886;47.036;15.466;2023-12-04T03:00:59;-5.09;78.19
68098;DHT22;54886;47.036;15.466;2023-12-04T03:03:24;-5.13;77.74
68098;DHT22;54886;47.036;15.466;2023-12-04T03:05:50;-5.15;78.11
68098;DHT22;54886;47.036;15.466;2023-12-04T03:08:15;-5.20;78.22
68098;DHT22;54886;47.036;15.466;2023-12-04T03:10:40;-5.27;77.86
68098;DHT22;54886;47.036;15.466;2023-12-04T03:13:06;-5.33;78.03
68098;DHT22;54886;47.036;15.466;2023-12-04T03:15:31;-5.35;78.02
68098;DHT22;54886;47.036;15.466;2023-12-04T03:17:57;-5.41;78.44
68098;DHT22;54886;47.036;15.466;2023-12-04T03:20:23;-5.35;78.45
68098;DHT22;54886;47.036;15.466;2023-12-04T03:22:48;-5.37;78.13
68098;DHT22;54886;47.036;15.466;2023-12-04T03:25:14;-5.38;78.21
68098;DHT22;54886;47.036;15.466;2023-12-04T03:27:39;-5.43;77.92
68098;DHT22;54886;47.036;15.466;2023-12-04T03:30:05;-5.48;78.09
68098;DHT22;54886;47.036;15.466;2023-12-04T03:32:30;-5.46;78.11
68098;DHT22;54886;47.036;15.466;2023-12-04T03:34:56;-5.47;77.81
68098;DHT22;54886;47.036;15.466;2023-12-04T03:37:21;-5.52;78.08
68098;DHT22;54886;47.036;15.466;2023-12-04T03:39:46;-5.47;78.55
68098;DHT22;54886;47.036;15.466;2023-12-04T03:42:12;-5.55;78.02
68098;DHT22;54886;47.036;15.466;2023-12-04T03:44:37;-5.60;77.97
68098;DHT22;54886;47.036;15.466;2023-12-04T03:47:03;-5.65;77.82
68098;DHT22;54886;47.036;15.466;2023-12-04T03:49:28;-5.61;77.88
68098;DHT22;54886;47.036;15.466;2023-12-04T03:51:53;-5.67;78.17
68098;DHT22;54886;47.036;15.466;2023-12-04T03:54:19;-5.62;78.29
68098;DHT22;54886;47.036;15.466;2023-12-04T03:56:44;-5.64;78.19
68098;DHT22;54886;47.036;15.466;2023-12-04T03:59:10;-5.70;78.16
68098;DHT22;54886;47.036;15.466;2023-12-04T04:01:36;-5.64;78.09
68098;DHT22;54886;47.036;15.466;2023-12-04T04:04:01;-5.72;78.01
68098;DHT22;54886;47.036;15.466;2023-12-04T04:06:26;-5.70;78.21
68098;DHT22;54886;47.036;15.466;2023-12-04T04:08:52;-5.65;78.51
68098;DHT22;54886;47.036;15.466;2023-12-04T04:11:18;-5.61;78.50
68098;DHT22;54886;47.036;15.466;2023-12-04T04:13:43;-5.67;78.18
68098;DHT22;54886;47.036;15.466;2023-12-04T04:16:14;-5.64;78.67
68098;DHT22;54886;47.036;15.466;2023-12-04T04:18:40;-5.62;78.46
68098;DHT22;54886;47.036;15.466;2023-12-04T04:21:05;-5.65;78.21
68098;DHT22;54886;47.036;15.466;2023-12-04T04:23:31;-5.68;78.12
68098;DHT22;54886;47.036;15.466;2023-12-04T04:25:56;-5.72;78.14
68098;DHT22;54886;47.036;15.466;2023-12-04T04:28:21;-5.74;78.47
68098;DHT22;54886;47.036;15.466;2023-12-04T04:30:47;-5.78;78.45
68098;DHT22;54886;47.036;15.466;2023-12-04T04:33:12;-5.75;78.17
68098;DHT22;54886;47.036;15.466;2023-12-04T04:35:37;-5.81;77.72
68098;DHT22;54886;47.036;15.466;2023-12-04T04:38:04;-5.83;77.92
68098;DHT22;54886;47.036;15.466;2023-12-04T04:40:29;-5.90;78.35
68098;DHT22;54886;47.036;15.466;2023-12-04T04:42:54;-5.85;78.64
68098;DHT22;54886;47.036;15.466;2023-12-04T04:45:20;-5.83;78.66
68098;DHT22;54886;47.036;15.466;2023-12-04T04:47:45;-5.83;77.96
68098;DHT22;54886;47.036;15.466;2023-12-04T04:50:10;-5.83;78.37
68098;DHT22;54886;47.036;15.466;2023-12-04T04:52:36;-5.85;78.41
68098;DHT22;54886;47.036;15.466;2023-12-04T04:55:01;-5.88;78.21
68098;DHT22;54886;47.036;15.466;2023-12-04T04:57:27;-5.88;78.29
68098;DHT22;54886;47.036;15.466;2023-12-04T04:59:52;-5.85;78.30
68098;DHT22;54886;47.036;15.466;2023-12-04T05:02:17;-5.92;78.30
68098;DHT22;54886;47.036;15.466;2023-12-04T05:04:43;-5.93;78.24
68098;DHT22;54886;47.036;15.466;2023-12-04T05:07:08;-5.93;78.14
68098;DHT22;54886;47.036;15.466;2023-12-04T05:09:34;-5.98;78.06
68098;DHT22;54886;47.036;15.466;2023-12-04T05:11:59;-5.99;78.03
68098;DHT22;54886;47.036;15.466;2023-12-04T05:14:24;-6.03;78.02
68098;DHT22;54886;47.036;15.466;2023-12-04T05:16:50;-6.06;77.94
68098;DHT22;54886;47.036;15.466;2023-12-04T05:19:15;-6.05;78.10
68098;DHT22;54886;47.036;15.466;2023-12-04T05:21:40;-6.02;78.37
68098;DHT22;54886;47.036;15.466;2023-12-04T05:24:06;-6.02;78.03
68098;DHT22;54886;47.036;15.466;2023-12-04T05:26:31;-6.03;78.40
68098;DHT22;54886;47.036;15.466;2023-12-04T05:28:56;-6.05;78.31
68098;DHT22;54886;47.036;15.466;2023-12-04T05:31:22;-6.07;78.15
68098;DHT22;54886;47.036;15.466;2023-12-04T05:33:47;-6.05;78.31
68098;DHT22;54886;47.036;15.466;2023-12-04T05:36:13;-6.07;78.51
68098;DHT22;54886;47.036;15.466;2023-12-04T05:38:38;-6.06;78.39
68098;DHT22;54886;47.036;15.466;2023-12-04T05:41:03;-6.11;78.14
68098;DHT22;54886;47.036;15.466;2023-12-04T05:43:29;-6.10;78.73
68098;DHT22;54886;47.036;15.466;2023-12-04T05:45:54;-6.10;78.62
68098;DHT22;54886;47.036;15.466;2023-12-04T05:48:19;-6.14;78.49
68098;DHT22;54886;47.036;15.466;2023-12-04T05:50:45;-6.13;78.89
68098;DHT22;54886;47.036;15.466;2023-12-04T05:53:11;-6.11;78.78
68098;DHT22;54886;47.036;15.466;2023-12-04T05:55:36;-6.18;78.57
68098;DHT22;54886;47.036;15.466;2023-12-04T05:58:02;-6.14;78.85
68098;DHT22;54886;47.036;15.466;2023-12-04T06:00:27;-6.14;78.73
68098;DHT22;54886;47.036;15.466;2023-12-04T06:02:54;-6.10;78.93
68098;DHT22;54886;47.036;15.466;2023-12-04T06:05:19;-6.09;78.95
68098;DHT22;54886;47.036;15.466;2023-12-04T06:07:45;-6.10;78.79
68098;DHT22;54886;47.036;15.466;2023-12-04T06:10:10;-6.11;78.95
68098;DHT22;54886;47.036;15.466;2023-12-04T06:12:35;-6.10;78.69
68098;DHT22;54886;47.036;15.466;2023-12-04T06:15:01;-6.21;78.60
68098;DHT22;54886;47.036;15.466;2023-12-04T06:17:27;-6.21;78.69
68098;DHT22;54886;47.036;15.466;2023-12-04T06:19:53;-6.21;78.97
68098;DHT22;54886;47.036;15.466;2023-12-04T06:22:18;-6.24;78.53
68098;DHT22;54886;47.036;15.466;2023-12-04T06:24:47;-6.28;78.63
68098;DHT22;54886;47.036;15.466;2023-12-04T06:27:15;-6.20;78.71
68098;DHT22;54886;47.036;15.466;2023-12-04T06:29:41;-6.20;78.56
68098;DHT22;54886;47.036;15.466;2023-12-04T06:32:08;-6.27;78.59
68098;DHT22;54886;47.036;15.466;2023-12-04T06:34:34;-6.28;78.41
68098;DHT22;54886;47.036;15.466;2023-12-04T06:37:07;-6.24;78.58
68098;DHT22;54886;47.036;15.466;2023-12-04T06:39:34;-6.28;78.70
68098;DHT22;54886;47.036;15.466;2023-12-04T06:42:00;-6.30;78.80
68098;DHT22;54886;47.036;15.466;2023-12-04T06:44:26;-6.28;78.69
68098;DHT22;54886;47.036;15.466;2023-12-04T06:46:51;-6.26;78.74
68098;DHT22;54886;47.036;15.466;2023-12-04T06:49:18;-6.27;78.56
68098;DHT22;54886;47.036;15.466;2023-12-04T06:51:43;-6.24;78.78
68098;DHT22;54886;47.036;15.466;2023-12-04T06:54:09;-6.23;78.79
68098;DHT22;54886;47.036;15.466;2023-12-04T06:56:34;-6.23;79.00
68098;DHT22;54886;47.036;15.466;2023-12-04T06:58:59;-6.20;78.78
68098;DHT22;54886;47.036;15.466;2023-12-04T07:01:25;-6.20;79.14
68098;DHT22;54886;47.036;15.466;2023-12-04T07:03:50;-6.18;78.97
68098;DHT22;54886;47.036;15.466;2023-12-04T07:06:16;-6.14;78.97
68098;DHT22;54886;47.036;15.466;2023-12-04T07:08:41;-6.11;78.82
68098;DHT22;54886;47.036;15.466;2023-12-04T07:11:07;-6.07;78.84
68098;DHT22;54886;47.036;15.466;2023-12-04T07:13:33;-6.05;79.16
68098;DHT22;54886;47.036;15.466;2023-12-04T07:15:59;-6.05;79.56
68098;DHT22;54886;47.036;15.466;2023-12-04T07:18:25;-6.03;79.72
68098;DHT22;54886;47.036;15.466;2023-12-04T07:20:50;-6.00;79.81
68098;DHT22;54886;47.036;15.466;2023-12-04T07:23:16;-5.99;80.27
68098;DHT22;54886;47.036;15.466;2023-12-04T07:25:41;-5.93;80.11
68098;DHT22;54886;47.036;15.466;2023-12-04T07:28:07;-5.92;80.17
68098;DHT22;54886;47.036;15.466;2023-12-04T07:30:33;-5.90;80.17
68098;DHT22;54886;47.036;15.466;2023-12-04T07:32:58;-5.88;80.72
68098;DHT22;54886;47.036;15.466;2023-12-04T07:35:25;-5.83;80.62
68098;DHT22;54886;47.036;15.466;2023-12-04T07:37:50;-5.82;80.65
68098;DHT22;54886;47.036;15.466;2023-12-04T07:40:16;-5.79;80.75
68098;DHT22;54886;47.036;15.466;2023-12-04T07:42:41;-5.78;81.00
68098;DHT22;54886;47.036;15.466;2023-12-04T07:45:08;-5.78;81.50
68098;DHT22;54886;47.036;15.466;2023-12-04T07:47:36;-5.74;82.20
68098;DHT22;54886;47.036;15.466;2023-12-04T07:50:02;-5.71;82.70
68098;DHT22;54886;47.036;15.466;2023-12-04T07:52:27;-5.67;81.89
68098;DHT22;54886;47.036;15.466;2023-12-04T07:54:53;-5.65;81.67
68098;DHT22;54886;47.036;15.466;2023-12-04T07:57:18;-5.60;82.02
68098;DHT22;54886;47.036;15.466;2023-12-04T07:59:44;-5.60;82.06
68098;DHT22;54886;47.036;15.466;2023-12-04T08:02:09;-5.52;82.13
68098;DHT22;54886;47.036;15.466;2023-12-04T08:04:35;-5.52;82.46
68098;DHT22;54886;47.036;15.466;2023-12-04T08:07:01;-5.47;82.22
68098;DHT22;54886;47.036;15.466;2023-12-04T08:09:26;-5.47;82.72
68098;DHT22;54886;47.036;15.466;2023-12-04T08:11:52;-5.41;82.47
68098;DHT22;54886;47.036;15.466;2023-12-04T08:14:17;-5.38;81.70
68098;DHT22;54886;47.036;15.466;2023-12-04T08:16:42;-5.33;82.17
68098;DHT22;54886;47.036;15.466;2023-12-04T08:19:08;-5.28;81.79
68098;DHT22;54886;47.036;15.466;2023-12-04T08:21:33;-5.27;82.30
68098;DHT22;54886;47.036;15.466;2023-12-04T08:23:59;-5.20;82.39
68098;DHT22;54886;47.036;15.466;2023-12-04T08:26:25;-5.16;82.39
68098;DHT22;54886;47.036;15.466;2023-12-04T08:28:51;-5.10;82.49
68098;DHT22;54886;47.036;15.466;2023-12-04T08:31:17;-5.12;82.38
68098;DHT22;54886;47.036;15.466;2023-12-04T08:33:42;-5.07;81.99
68098;DHT22;54886;47.036;15.466;2023-12-04T08:36:09;-5.05;81.98
68098;DHT22;54886;47.036;15.466;2023-12-04T08:38:34;-5.00;82.04
68098;DHT22;54886;47.036;15.466;2023-12-04T08:41:00;-4.95;82.06
68098;DHT22;54886;47.036;15.466;2023-12-04T08:43:25;-4.89;81.79
68098;DHT22;54886;47.036;15.466;2023-12-04T08:45:51;-4.87;81.73
68098;DHT22;54886;47.036;15.466;2023-12-04T08:48:16;-4.79;81.80
68098;DHT22;54886;47.036;15.466;2023-12-04T08:50:41;-4.79;81.90
68098;DHT22;54886;47.036;15.466;2023-12-04T08:53:07;-4.77;81.71
68098;DHT22;54886;47.036;15.466;2023-12-04T08:55:32;-4.72;81.31
68098;DHT22;54886;47.036;15.466;2023-12-04T08:57:58;-4.67;81.27
68098;DHT22;54886;47.036;15.466;2023-12-04T09:00:23;-4.64;82.03
68098;DHT22;54886;47.036;15.466;2023-12-04T09:02:48;-4.60;81.55
68098;DHT22;54886;47.036;15.466;2023-12-04T09:05:14;-4.56;80.66
68098;DHT22;54886;47.036;15.466;2023-12-04T09:07:40;-4.51;81.14
68098;DHT22;54886;47.036;15.466;2023-12-04T09:10:06;-4.49;81.30
68098;DHT22;54886;47.036;15.466;2023-12-04T09:12:31;-4.47;81.07
68098;DHT22;54886;47.036;15.466;2023-12-04T09:14:56;-4.41;81.79
68098;DHT22;54886;47.036;15.466;2023-12-04T09:17:22;-4.36;81.73
68098;DHT22;54886;47.036;15.466;2023-12-04T09:19:47;-4.33;81.75
68098;DHT22;54886;47.036;15.466;2023-12-04T09:22:13;-4.29;81.36
68098;DHT22;54886;47.036;15.466;2023-12-04T09:24:38;-4.27;80.18
68098;DHT22;54886;47.036;15.466;2023-12-04T09:27:04;-4.24;79.85
68098;DHT22;54886;47.036;15.466;2023-12-04T09:29:31;-4.23;80.41
68098;DHT22;54886;47.036;15.466;2023-12-04T09:31:57;-4.16;81.12
68098;DHT22;54886;47.036;15.466;2023-12-04T09:34:22;-4.13;81.15
68098;DHT22;54886;47.036;15.466;2023-12-04T09:36:47;-4.07;81.45
68098;DHT22;54886;47.036;15.466;2023-12-04T09:39:13;-4.03;80.83
68098;DHT22;54886;47.036;15.466;2023-12-04T09:41:40;-3.99;80.90
68098;DHT22;54886;47.036;15.466;2023-12-04T09:44:07;-3.92;81.76
68098;DHT22;54886;47.036;15.466;2023-12-04T09:46:34;-3.87;81.54
68098;DHT22;54886;47.036;15.466;2023-12-04T09:48:59;-3.84;80.56
68098;DHT22;54886;47.036;15.466;2023-12-04T09:51:27;-3.78;81.21
68098;DHT22;54886;47.036;15.466;2023-12-04T09:53:53;-3.75;81.09
68098;DHT22;54886;47.036;15.466;2023-12-04T09:56:21;-3.70;80.94
68098;DHT22;54886;47.036;15.466;2023-12-04T09:58:52;-3.66;81.36
68098;DHT22;54886;47.036;15.466;2023-12-04T10:01:19;-3.63;80.93
68098;DHT22;54886;47.036;15.466;2023-12-04T10:03:45;-3.56;80.95
68098;DHT22;54886;47.036;15.466;2023-12-04T10:06:15;-3.57;80.72
68098;DHT22;54886;47.036;15.466;2023-12-04T10:08:42;-3.51;80.34
68098;DHT22;54886;47.036;15.466;2023-12-04T10:11:08;-3.49;79.82
68098;DHT22;54886;47.036;15.466;2023-12-04T10:13:33;-3.43;80.55
68098;DHT22;54886;47.036;15.466;2023-12-04T10:15:58;-3.40;80.14
68098;DHT22;54886;47.036;15.466;2023-12-04T10:18:28;-3.36;79.95
68098;DHT22;54886;47.036;15.466;2023-12-04T10:20:56;-3.30;80.09
68098;DHT22;54886;47.036;15.466;2023-12-04T10:23:22;-3.24;79.87
68098;DHT22;54886;47.036;15.466;2023-12-04T10:25:50;-3.17;80.16
68098;DHT22;54886;47.036;15.466;2023-12-04T10:28:16;-3.13;79.62
68098;DHT22;54886;47.036;15.466;2023-12-04T10:30:42;-3.09;79.33
68098;DHT22;54886;47.036;15.466;2023-12-04T10:33:08;-3.06;79.47
68098;DHT22;54886;47.036;15.466;2023-12-04T10:35:34;-2.98;79.17
68098;DHT22;54886;47.036;15.466;2023-12-04T10:38:05;-2.96;78.89
68098;DHT22;54886;47.036;15.466;2023-12-04T10:40:32;-2.94;78.70
68098;DHT22;54886;47.036;15.466;2023-12-04T10:43:18;-2.89;78.34
68098;DHT22;54886;47.036;15.466;2023-12-04T10:45:46;-2.87;77.67
68098;DHT22;54886;47.036;15.466;2023-12-04T10:48:12;-2.80;77.65
68098;DHT22;54886;47.036;15.466;2023-12-04T10:50:39;-2.77;77.08
68098;DHT22;54886;47.036;15.466;2023-12-04T10:53:06;-2.71;77.97
68098;DHT22;54886;47.036;15.466;2023-12-04T10:55:33;-2.70;78.01
68098;DHT22;54886;47.036;15.466;2023-12-04T10:58:01;-2.64;78.91
68098;DHT22;54886;47.036;15.466;2023-12-04T11:00:27;-2.58;79.38
68098;DHT22;54886;47.036;15.466;2023-12-04T11:02:55;-2.54;78.70
68098;DHT22;54886;47.036;15.466;2023-12-04T11:05:23;-2.43;78.59
68098;DHT22;54886;47.036;15.466;2023-12-04T11:07:58;-2.40;77.96
68098;DHT22;54886;47.036;15.466;2023-12-04T11:10:26;-2.38;77.92
68098;DHT22;54886;47.036;15.466;2023-12-04T11:13:00;-2.33;78.17
68098;DHT22;54886;47.036;15.466;2023-12-04T11:15:29;-2.32;78.54
68098;DHT22;54886;47.036;15.466;2023-12-04T11:17:59;-2.25;78.18
68098;DHT22;54886;47.036;15.466;2023-12-04T11:20:28;-2.18;78.15
68098;DHT22;54886;47.036;15.466;2023-12-04T11:22:55;-2.18;77.66
68098;DHT22;54886;47.036;15.466;2023-12-04T11:25:21;-2.08;77.44
68098;DHT22;54886;47.036;15.466;2023-12-04T11:27:51;-2.09;77.82
68098;DHT22;54886;47.036;15.466;2023-12-04T11:30:17;-2.05;78.23
68098;DHT22;54886;47.036;15.466;2023-12-04T11:32:46;-2.01;78.51
68098;DHT22;54886;47.036;15.466;2023-12-04T11:35:15;-1.98;78.37
68098;DHT22;54886;47.036;15.466;2023-12-04T11:37:43;-1.95;78.58
68098;DHT22;54886;47.036;15.466;2023-12-04T11:40:11;-1.95;78.59
68098;DHT22;54886;47.036;15.466;2023-12-04T11:42:37;-1.93;78.96
68098;DHT22;54886;47.036;15.466;2023-12-04T11:45:05;-1.85;78.92
68098;DHT22;54886;47.036;15.466;2023-12-04T11:47:48;-1.83;78.65
68098;DHT22;54886;47.036;15.466;2023-12-04T11:50:14;-1.83;78.78
68098;DHT22;54886;47.036;15.466;2023-12-04T11:52:39;-1.78;79.14
68098;DHT22;54886;47.036;15.466;2023-12-04T11:55:05;-1.78;79.04
68098;DHT22;54886;47.036;15.466;2023-12-04T11:57:50;-1.73;78.98
68098;DHT22;54886;47.036;15.466;2023-12-04T12:05:14;-1.62;78.98
68098;DHT22;54886;47.036;15.466;2023-12-04T12:07:40;-1.59;78.72
68098;DHT22;54886;47.036;15.466;2023-12-04T12:10:05;-1.53;78.69
68098;DHT22;54886;47.036;15.466;2023-12-04T12:12:31;-1.53;78.54
68098;DHT22;54886;47.036;15.466;2023-12-04T12:15:00;-1.52;78.56
68098;DHT22;54886;47.036;15.466;2023-12-04T12:17:25;-1.47;78.19
68098;DHT22;54886;47.036;15.466;2023-12-04T12:19:51;-1.43;78.22
68098;DHT22;54886;47.036;15.466;2023-12-04T12:22:17;-1.42;78.27
68098;DHT22;54886;47.036;15.466;2023-12-04T12:24:42;-1.39;78.09
68098;DHT22;54886;47.036;15.466;2023-12-04T12:27:07;-1.38;78.03
68098;DHT22;54886;47.036;15.466;2023-12-04T12:29:33;-1.38;77.70
68098;DHT22;54886;47.036;15.466;2023-12-04T12:31:58;-1.35;77.79
68098;DHT22;54886;47.036;15.466;2023-12-04T12:34:23;-1.32;77.68
68098;DHT22;54886;47.036;15.466;2023-12-04T12:36:49;-1.31;77.48
68098;DHT22;54886;47.036;15.466;2023-12-04T12:39:14;-1.27;77.65
68098;DHT22;54886;47.036;15.466;2023-12-04T12:41:49;-1.25;77.59
68098;DHT22;54886;47.036;15.466;2023-12-04T12:44:15;-1.24;77.66
68098;DHT22;54886;47.036;15.466;2023-12-04T12:46:41;-1.21;77.73
68098;DHT22;54886;47.036;15.466;2023-12-04T12:49:06;-1.22;77.49
68098;DHT22;54886;47.036;15.466;2023-12-04T12:51:32;-1.19;77.44
68098;DHT22;54886;47.036;15.466;2023-12-04T12:53:58;-1.16;77.80
68098;DHT22;54886;47.036;15.466;2023-12-04T12:56:25;-1.15;77.29
68098;DHT22;54886;47.036;15.466;2023-12-04T12:58:50;-1.12;77.09
68098;DHT22;54886;47.036;15.466;2023-12-04T13:01:17;-1.13;77.02
68098;DHT22;54886;47.036;15.466;2023-12-04T13:03:45;-1.15;76.77
68098;DHT22;54886;47.036;15.466;2023-12-04T13:06:12;-1.11;77.19
68098;DHT22;54886;47.036;15.466;2023-12-04T13:08:38;-1.09;77.07
68098;DHT22;54886;47.036;15.466;2023-12-04T13:11:03;-1.08;77.42
68098;DHT22;54886;47.036;15.466;2023-12-04T13:13:29;-1.07;77.71
68098;DHT22;54886;47.036;15.466;2023-12-04T13:15:55;-1.05;77.56
68098;DHT22;54886;47.036;15.466;2023-12-04T13:18:20;-1.08;77.41
68098;DHT22;54886;47.036;15.466;2023-12-04T13:20:45;-1.02;77.61
68098;DHT22;54886;47.036;15.466;2023-12-04T13:23:11;-1.04;77.57
68098;DHT22;54886;47.036;15.466;2023-12-04T13:25:36;-1.02;77.29
68098;DHT22;54886;47.036;15.466;2023-12-04T13:28:01;-1.00;77.13
68098;DHT22;54886;47.036;15.466;2023-12-04T13:30:27;-0.98;77.17
68098;DHT22;54886;47.036;15.466;2023-12-04T13:32:52;-1.01;76.81
68098;DHT22;54886;47.036;15.466;2023-12-04T13:35:18;-0.97;76.91
68098;DHT22;54886;47.036;15.466;2023-12-04T13:37:43;-1.00;76.85
68098;DHT22;54886;47.036;15.466;2023-12-04T13:40:09;-0.98;76.98
68098;DHT22;54886;47.036;15.466;2023-12-04T13:42:41;-0.97;76.97
68098;DHT22;54886;47.036;15.466;2023-12-04T13:45:25;-0.95;77.07
68098;DHT22;54886;47.036;15.466;2023-12-04T13:47:50;-0.92;77.02
68098;DHT22;54886;47.036;15.466;2023-12-04T13:50:17;-0.97;76.98
68098;DHT22;54886;47.036;15.466;2023-12-04T13:52:42;-0.94;77.14
68098;DHT22;54886;47.036;15.466;2023-12-04T13:55:10;-0.94;77.02
68098;DHT22;54886;47.036;15.466;2023-12-04T13:57:47;-0.91;77.15
68098;DHT22;54886;47.036;15.466;2023-12-04T14:00:35;-0.88;77.75
68098;DHT22;54886;47.036;15.466;2023-12-04T14:03:01;-0.91;77.61
68098;DHT22;54886;47.036;15.466;2023-12-04T14:05:32;-0.91;77.35
68098;DHT22;54886;47.036;15.466;2023-12-04T14:07:58;-0.90;77.54
68098;DHT22;54886;47.036;15.466;2023-12-04T14:10:26;-0.91;77.20
68098;DHT22;54886;47.036;15.466;2023-12-04T14:12:52;-0.90;77.35
68098;DHT22;54886;47.036;15.466;2023-12-04T14:15:17;-0.88;77.42
68098;DHT22;54886;47.036;15.466;2023-12-04T14:17:43;-0.88;76.92
68098;DHT22;54886;47.036;15.466;2023-12-04T14:20:08;-0.92;77.20
68098;DHT22;54886;47.036;15.466;2023-12-04T14:22:42;-0.90;77.13
68098;DHT22;54886;47.036;15.466;2023-12-04T14:25:08;-0.91;76.98
68098;DHT22;54886;47.036;15.466;2023-12-04T14:27:33;-0.92;77.06
68098;DHT22;54886;47.036;15.466;2023-12-04T14:29:59;-0.92;77.42
68098;DHT22;54886;47.036;15.466;2023-12-04T14:32:24;-0.94;77.62
68098;DHT22;54886;47.036;15.466;2023-12-04T14:34:49;-0.90;78.00
68098;DHT22;54886;47.036;15.466;2023-12-04T14:37:15;-0.87;77.67
68098;DHT22;54886;47.036;15.466;2023-12-04T14:39:41;-0.85;77.68
68098;DHT22;54886;47.036;15.466;2023-12-04T14:42:06;-0.87;78.22
68098;DHT22;54886;47.036;15.466;2023-12-04T14:44:31;-0.84;77.76
68098;DHT22;54886;47.036;15.466;2023-12-04T14:46:58;-0.81;77.84
68098;DHT22;54886;47.036;15.466;2023-12-04T14:49:24;-0.83;78.16
68098;DHT22;54886;47.036;15.466;2023-12-04T14:51:49;-0.80;77.75
68098;DHT22;54886;47.036;15.466;2023-12-04T14:54:15;-0.80;78.12
68098;DHT22;54886;47.036;15.466;2023-12-04T14:56:47;-0.79;77.90
68098;DHT22;54886;47.036;15.466;2023-12-04T14:59:31;-0.80;77.87
68098;DHT22;54886;47.036;15.466;2023-12-04T15:02:15;-0.81;77.77
68098;DHT22;54886;47.036;15.466;2023-12-04T15:04:40;-0.83;77.96
68098;DHT22;54886;47.036;15.466;2023-12-04T15:07:18;-0.83;77.78
68098;DHT22;54886;47.036;15.466;2023-12-04T15:09:46;-0.83;77.81
68098;DHT22;54886;47.036;15.466;2023-12-04T15:12:11;-0.83;78.03
68098;DHT22;54886;47.036;15.466;2023-12-04T15:14:37;-0.81;78.12